sensor_id;sensor_type;location;lat;lon;timestamp;temperature;humidity
7822;DHT22;3956;50.558;9.678;2022-11-23T00:01:43;6.30;1.00
7822;DHT22;3956;50.558;9.678;2022-11-23T00:04:12;6.30;1.00
7822;DHT22;3956;50.558;9.678;2022-11-23T00:06:40;6.30;1.00
7822;DHT22;3956;50.558;9.678;2022-11-23T00:09:09;6.30;1.00
7822;DHT22;3956;50.558;9.678;2022-11-23T00:11:38;6.20;1.00
7822;DHT22;3956;50.558;9.678;2022-11-23T00:14:08;6.20;1.00
7822;DHT22;3956;50.558;9.678;2022-11-23T00:16:36;6.20;1.00
7822;DHT22;3956;50.558;9.678;2022-11-23T00:19:05;6.20;1.00
7822;DHT22;3956;50.558;9.678;2022-11-23T00:21:36;6.20;1.00
7822;DHT22;3956;50.558;9.678;2022-11-23T00:24:05;6.20;1.00
7822;DHT22;3956;50.558;9.678;2022-11-23T00:26:33;6.30;1.00
7822;DHT22;3956;50.558;9.678;2022-11-23T00:29:02;6.30;1.00
7822;DHT22;3956;50.558;9.678;2022-11-23T00:31:31;6.30;1.00
7822;DHT22;3956;50.558;9.678;2022-11-23T00:34:00;6.30;1.00
7822;DHT22;3956;50.558;9.678;2022-11-23T00:36:28;6.30;1.00
7822;DHT22;3956;50.558;9.678;2022-11-23T00:38:56;6.20;1.00
7822;DHT22;3956;50.558;9.678;2022-11-23T00:41:26;6.10;1.00
7822;DHT22;3956;50.558;9.678;2022-11-23T00:43:55;6.10;1.00
7822;DHT22;3956;50.558;9.678;2022-11-23T00:46:24;6.00;1.00
7822;DHT22;3956;50.558;9.678;2022-11-23T00:48:56;6.00;1.00
7822;DHT22;3956;50.558;9.678;2022-11-23T00:51:26;6.00;1.00
7822;DHT22;3956;50.558;9.678;2022-11-23T00:53:55;6.00;1.00
7822;DHT22;3956;50.558;9.678;2022-11-23T00:56:24;5.90;1.00
7822;DHT22;3956;50.558;9.678;2022-11-23T00:58:54;6.00;1.00
7822;DHT22;3956;50.558;9.678;2022-11-23T01:01:24;6.00;1.00
7822;DHT22;3956;50.558;9.678;2022-11-23T01:03:55;6.00;1.00
7822;DHT22;3956;50.558;9.678;2022-11-23T01:06:26;6.00;1.00
7822;DHT22;3956;50.558;9.678;2022-11-23T01:08:56;6.00;1.00
7822;DHT22;3956;50.558;9.678;2022-11-23T01:11:27;6.00;1.00
7822;DHT22;3956;50.558;9.678;2022-11-23T01:13:55;6.00;1.00
7822;DHT22;3956;50.558;9.678;2022-11-23T01:16:25;6.00;1.00
7822;DHT22;3956;50.558;9.678;2022-11-23T01:18:56;6.00;1.00
7822;DHT22;3956;50.558;9.678;2022-11-23T01:21:26;6.00;1.00
7822;DHT22;3956;50.558;9.678;2022-11-23T01:23:55;6.00;1.00
7822;DHT22;3956;50.558;9.678;2022-11-23T01:26:24;6.00;1.00
7822;DHT22;3956;50.558;9.678;2022-11-23T01:28:54;5.90;1.00
7822;DHT22;3956;50.558;9.678;2022-11-23T01:31:24;5.90;1.00
7822;DHT22;3956;50.558;9.678;2022-11-23T01:33:55;5.80;1.00
7822;DHT22;3956;50.558;9.678;2022-11-23T01:36:25;5.80;1.00
7822;DHT22;3956;50.558;9.678;2022-11-23T01:38:54;5.80;1.00
7822;DHT22;3956;50.558;9.678;2022-11-23T01:41:24;5.80;1.00
7822;DHT22;3956;50.558;9.678;2022-11-23T01:43:54;5.70;1.00
7822;DHT22;3956;50.558;9.678;2022-11-23T01:46:27;5.70;1.00
7822;DHT22;3956;50.558;9.678;2022-11-23T01:49:02;5.80;1.00
7822;DHT22;3956;50.558;9.678;2022-11-23T01:51:33;5.90;1.00
7822;DHT22;3956;50.558;9.678;2022-11-23T01:54:05;5.80;1.00
7822;DHT22;3956;50.558;9.678;2022-11-23T01:56:37;5.80;1.00
7822;DHT22;3956;50.558;9.678;2022-11-23T01:59:09;5.90;1.00
7822;DHT22;3956;50.558;9.678;2022-11-23T02:01:38;5.90;1.00
7822;DHT22;3956;50.558;9.678;2022-11-23T02:04:11;5.90;1.00
7822;DHT22;3956;50.558;9.678;2022-11-23T02:06:43;5.90;1.00
7822;DHT22;3956;50.558;9.678;2022-11-23T02:09:13;5.90;1.00
7822;DHT22;3956;50.558;9.678;2022-11-23T02:11:42;5.90;1.00
7822;DHT22;3956;50.558;9.678;2022-11-23T02:14:10;5.90;1.00
7822;DHT22;3956;50.558;9.678;2022-11-23T02:16:40;5.90;1.00
7822;DHT22;3956;50.558;9.678;2022-11-23T02:19:17;6.00;1.00
7822;DHT22;3956;50.558;9.678;2022-11-23T02:21:48;6.00;1.00
7822;DHT22;3956;50.558;9.678;2022-11-23T02:24:24;6.00;1.00
7822;DHT22;3956;50.558;9.678;2022-11-23T02:26:55;6.00;1.00
7822;DHT22;3956;50.558;9.678;2022-11-23T02:29:25;6.00;1.00
7822;DHT22;3956;50.558;9.678;2022-11-23T02:31:53;6.00;1.00
7822;DHT22;3956;50.558;9.678;2022-11-23T02:34:22;6.00;1.00
7822;DHT22;3956;50.558;9.678;2022-11-23T02:36:52;6.00;1.00
7822;DHT22;3956;50.558;9.678;2022-11-23T02:39:25;6.10;1.00
7822;DHT22;3956;50.558;9.678;2022-11-23T02:41:58;6.00;1.00
7822;DHT22;3956;50.558;9.678;2022-11-23T02:44:33;6.10;1.00
7822;DHT22;3956;50.558;9.678;2022-11-23T02:47:04;6.00;1.00
7822;DHT22;3956;50.558;9.678;2022-11-23T02:49:33;6.00;1.00
7822;DHT22;3956;50.558;9.678;2022-11-23T02:52:03;6.10;1.00
7822;DHT22;3956;50.558;9.678;2022-11-23T02:54:31;6.10;1.00
7822;DHT22;3956;50.558;9.678;2022-11-23T02:57:01;6.00;1.00
7822;DHT22;3956;50.558;9.678;2022-11-23T02:59:29;6.10;1.00
7822;DHT22;3956;50.558;9.678;2022-11-23T03:01:59;6.10;1.00
7822;DHT22;3956;50.558;9.678;2022-11-23T03:04:32;6.10;1.00
7822;DHT22;3956;50.558;9.678;2022-11-23T03:07:01;6.10;1.00
7822;DHT22;3956;50.558;9.678;2022-11-23T03:09:32;6.10;1.00
7822;DHT22;3956;50.558;9.678;2022-11-23T03:12:02;6.10;1.00
7822;DHT22;3956;50.558;9.678;2022-11-23T03:14:32;6.10;1.00
7822;DHT22;3956;50.558;9.678;2022-11-23T03:17:00;6.10;1.00
7822;DHT22;3956;50.558;9.678;2022-11-23T03:19:29;6.10;1.00
7822;DHT22;3956;50.558;9.678;2022-11-23T03:22:02;6.20;1.00
7822;DHT22;3956;50.558;9.678;2022-11-23T03:24:32;6.10;1.00
7822;DHT22;3956;50.558;9.678;2022-11-23T03:27:02;6.10;1.00
7822;DHT22;3956;50.558;9.678;2022-11-23T03:29:30;6.10;1.00
7822;DHT22;3956;50.558;9.678;2022-11-23T03:32:02;6.20;1.00
7822;DHT22;3956;50.558;9.678;2022-11-23T03:34:36;6.10;1.00
7822;DHT22;3956;50.558;9.678;2022-11-23T03:37:14;6.10;1.00
7822;DHT22;3956;50.558;9.678;2022-11-23T03:39:44;6.10;1.00
7822;DHT22;3956;50.558;9.678;2022-11-23T03:42:15;6.10;1.00
7822;DHT22;3956;50.558;9.678;2022-11-23T03:44:44;6.10;1.00
7822;DHT22;3956;50.558;9.678;2022-11-23T03:47:14;6.10;1.00
7822;DHT22;3956;50.558;9.678;2022-11-23T03:49:42;6.10;1.00
7822;DHT22;3956;50.558;9.678;2022-11-23T03:52:11;6.10;1.00
7822;DHT22;3956;50.558;9.678;2022-11-23T03:54:40;6.10;1.00
7822;DHT22;3956;50.558;9.678;2022-11-23T03:57:08;6.10;1.00
7822;DHT22;3956;50.558;9.678;2022-11-23T03:59:37;6.10;1.00
7822;DHT22;3956;50.558;9.678;2022-11-23T04:02:07;6.10;1.00
7822;DHT22;3956;50.558;9.678;2022-11-23T04:04:46;6.10;1.00
7822;DHT22;3956;50.558;9.678;2022-11-23T04:07:23;6.10;1.00
7822;DHT22;3956;50.558;9.678;2022-11-23T04:09:51;6.10;1.00
7822;DHT22;3956;50.558;9.678;2022-11-23T04:12:20;6.10;1.00
7822;DHT22;3956;50.558;9.678;2022-11-23T04:14:51;6.10;1.00
7822;DHT22;3956;50.558;9.678;2022-11-23T04:17:19;6.10;1.00
7822;DHT22;3956;50.558;9.678;2022-11-23T04:19:48;6.10;1.00
7822;DHT22;3956;50.558;9.678;2022-11-23T04:22:16;6.10;1.00
7822;DHT22;3956;50.558;9.678;2022-11-23T04:24:44;6.10;1.00
7822;DHT22;3956;50.558;9.678;2022-11-23T04:27:12;6.10;1.00
7822;DHT22;3956;50.558;9.678;2022-11-23T04:29:42;6.10;1.00
7822;DHT22;3956;50.558;9.678;2022-11-23T04:32:12;6.10;1.00
7822;DHT22;3956;50.558;9.678;2022-11-23T04:34:43;6.10;1.00
7822;DHT22;3956;50.558;9.678;2022-11-23T04:37:14;6.20;1.00
7822;DHT22;3956;50.558;9.678;2022-11-23T04:39:45;6.20;1.00
7822;DHT22;3956;50.558;9.678;2022-11-23T04:42:13;6.20;1.00
7822;DHT22;3956;50.558;9.678;2022-11-23T04:44:42;6.30;1.00
7822;DHT22;3956;50.558;9.678;2022-11-23T04:47:12;6.20;1.00
7822;DHT22;3956;50.558;9.678;2022-11-23T04:49:47;6.20;1.00
7822;DHT22;3956;50.558;9.678;2022-11-23T04:52:18;6.30;1.00
7822;DHT22;3956;50.558;9.678;2022-11-23T04:55:06;6.20;1.00
7822;DHT22;3956;50.558;9.678;2022-11-23T04:57:37;6.30;1.00
7822;DHT22;3956;50.558;9.678;2022-11-23T05:00:14;6.20;1.00
7822;DHT22;3956;50.558;9.678;2022-11-23T05:02:47;6.20;1.00
7822;DHT22;3956;50.558;9.678;2022-11-23T05:05:15;6.10;1.00
7822;DHT22;3956;50.558;9.678;2022-11-23T05:07:50;6.10;1.00
7822;DHT22;3956;50.558;9.678;2022-11-23T05:10:18;6.10;1.00
7822;DHT22;3956;50.558;9.678;2022-11-23T05:12:49;6.00;1.00
7822;DHT22;3956;50.558;9.678;2022-11-23T05:15:19;6.00;1.00
7822;DHT22;3956;50.558;9.678;2022-11-23T05:17:50;6.00;1.00
7822;DHT22;3956;50.558;9.678;2022-11-23T05:20:25;6.00;1.00
7822;DHT22;3956;50.558;9.678;2022-11-23T05:22:53;6.00;1.00
7822;DHT22;3956;50.558;9.678;2022-11-23T05:25:23;6.00;1.00
7822;DHT22;3956;50.558;9.678;2022-11-23T05:27:55;6.00;1.00
7822;DHT22;3956;50.558;9.678;2022-11-23T05:31:03;6.00;1.00
7822;DHT22;3956;50.558;9.678;2022-11-23T05:33:57;6.00;1.00
7822;DHT22;3956;50.558;9.678;2022-11-23T05:36:33;6.00;1.00
7822;DHT22;3956;50.558;9.678;2022-11-23T05:39:08;6.10;1.00
7822;DHT22;3956;50.558;9.678;2022-11-23T05:41:37;6.10;1.00
7822;DHT22;3956;50.558;9.678;2022-11-23T05:44:06;6.00;1.00
7822;DHT22;3956;50.558;9.678;2022-11-23T05:46:44;6.10;1.00
7822;DHT22;3956;50.558;9.678;2022-11-23T05:49:15;6.10;1.00
7822;DHT22;3956;50.558;9.678;2022-11-23T05:51:48;6.10;1.00
7822;DHT22;3956;50.558;9.678;2022-11-23T05:54:57;6.10;1.00
7822;DHT22;3956;50.558;9.678;2022-11-23T05:57:57;6.00;1.00
7822;DHT22;3956;50.558;9.678;2022-11-23T06:00:30;6.10;1.00
7822;DHT22;3956;50.558;9.678;2022-11-23T06:02:59;6.00;1.00
7822;DHT22;3956;50.558;9.678;2022-11-23T06:05:31;6.00;1.00
7822;DHT22;3956;50.558;9.678;2022-11-23T06:08:07;5.90;1.00
7822;DHT22;3956;50.558;9.678;2022-11-23T06:11:10;5.90;1.00
7822;DHT22;3956;50.558;9.678;2022-11-23T06:13:38;5.80;1.00
7822;DHT22;3956;50.558;9.678;2022-11-23T06:16:07;5.80;1.00
7822;DHT22;3956;50.558;9.678;2022-11-23T06:18:36;5.80;1.00
7822;DHT22;3956;50.558;9.678;2022-11-23T06:21:12;5.80;1.00
7822;DHT22;3956;50.558;9.678;2022-11-23T06:23:41;5.80;1.00
7822;DHT22;3956;50.558;9.678;2022-11-23T06:26:09;5.80;1.00
7822;DHT22;3956;50.558;9.678;2022-11-23T06:28:40;5.80;1.00
7822;DHT22;3956;50.558;9.678;2022-11-23T06:31:09;5.90;1.00
7822;DHT22;3956;50.558;9.678;2022-11-23T06:33:39;5.90;1.00
7822;DHT22;3956;50.558;9.678;2022-11-23T06:36:16;5.90;1.00
7822;DHT22;3956;50.558;9.678;2022-11-23T06:39:16;5.90;1.00
7822;DHT22;3956;50.558;9.678;2022-11-23T06:42:07;6.00;1.00
7822;DHT22;3956;50.558;9.678;2022-11-23T06:44:59;6.00;1.00
7822;DHT22;3956;50.558;9.678;2022-11-23T06:47:31;6.10;1.00
7822;DHT22;3956;50.558;9.678;2022-11-23T06:57:07;6.00;1.00
7822;DHT22;3956;50.558;9.678;2022-11-23T07:00:15;6.00;1.00
7822;DHT22;3956;50.558;9.678;2022-11-23T07:03:24;6.10;1.00
7822;DHT22;3956;50.558;9.678;2022-11-23T07:05:54;6.10;1.00
7822;DHT22;3956;50.558;9.678;2022-11-23T07:08:26;6.00;1.00
7822;DHT22;3956;50.558;9.678;2022-11-23T07:10:59;6.10;1.00
7822;DHT22;3956;50.558;9.678;2022-11-23T07:13:35;6.10;1.00
7822;DHT22;3956;50.558;9.678;2022-11-23T07:16:19;6.10;1.00
7822;DHT22;3956;50.558;9.678;2022-11-23T07:19:40;6.10;1.00
7822;DHT22;3956;50.558;9.678;2022-11-23T07:22:22;6.10;1.00
7822;DHT22;3956;50.558;9.678;2022-11-23T07:24:52;6.20;1.00
7822;DHT22;3956;50.558;9.678;2022-11-23T07:27:21;6.20;1.00
7822;DHT22;3956;50.558;9.678;2022-11-23T07:29:51;6.20;1.00
7822;DHT22;3956;50.558;9.678;2022-11-23T07:32:23;6.20;1.00
7822;DHT22;3956;50.558;9.678;2022-11-23T07:34:56;6.20;1.00
7822;DHT22;3956;50.558;9.678;2022-11-23T07:37:30;6.20;1.00
7822;DHT22;3956;50.558;9.678;2022-11-23T07:43:05;6.10;1.00
7822;DHT22;3956;50.558;9.678;2022-11-23T07:45:54;6.20;1.00
7822;DHT22;3956;50.558;9.678;2022-11-23T07:48:24;6.10;1.00
7822;DHT22;3956;50.558;9.678;2022-11-23T07:51:00;6.20;1.00
7822;DHT22;3956;50.558;9.678;2022-11-23T07:53:30;6.20;1.00
7822;DHT22;3956;50.558;9.678;2022-11-23T07:56:15;6.10;1.00
7822;DHT22;3956;50.558;9.678;2022-11-23T07:58:44;6.10;1.00
7822;DHT22;3956;50.558;9.678;2022-11-23T08:01:21;6.20;1.00
7822;DHT22;3956;50.558;9.678;2022-11-23T08:04:02;6.20;1.00
7822;DHT22;3956;50.558;9.678;2022-11-23T08:06:30;6.30;1.00
7822;DHT22;3956;50.558;9.678;2022-11-23T08:09:02;6.30;1.00
7822;DHT22;3956;50.558;9.678;2022-11-23T08:11:59;6.30;1.00
7822;DHT22;3956;50.558;9.678;2022-11-23T08:15:03;6.30;1.00
7822;DHT22;3956;50.558;9.678;2022-11-23T08:17:39;6.30;1.00
7822;DHT22;3956;50.558;9.678;2022-11-23T08:20:26;6.30;1.00
7822;DHT22;3956;50.558;9.678;2022-11-23T08:23:01;6.40;1.00
7822;DHT22;3956;50.558;9.678;2022-11-23T08:25:44;6.60;1.00
7822;DHT22;3956;50.558;9.678;2022-11-23T08:28:40;6.80;1.00
7822;DHT22;3956;50.558;9.678;2022-11-23T08:31:11;6.70;1.00
7822;DHT22;3956;50.558;9.678;2022-11-23T08:33:49;6.80;1.00
7822;DHT22;3956;50.558;9.678;2022-11-23T08:36:30;6.70;1.00
7822;DHT22;3956;50.558;9.678;2022-11-23T08:38:58;6.60;1.00
7822;DHT22;3956;50.558;9.678;2022-11-23T08:41:31;6.60;1.00
7822;DHT22;3956;50.558;9.678;2022-11-23T08:44:01;6.70;1.00
7822;DHT22;3956;50.558;9.678;2022-11-23T08:46:31;6.70;1.00
7822;DHT22;3956;50.558;9.678;2022-11-23T08:49:01;6.90;1.00
7822;DHT22;3956;50.558;9.678;2022-11-23T08:51:32;7.00;1.00
7822;DHT22;3956;50.558;9.678;2022-11-23T08:54:01;7.00;1.00
7822;DHT22;3956;50.558;9.678;2022-11-23T08:56:32;7.10;1.00
7822;DHT22;3956;50.558;9.678;2022-11-23T08:59:16;7.30;1.00
7822;DHT22;3956;50.558;9.678;2022-11-23T09:02:18;7.30;1.00
7822;DHT22;3956;50.558;9.678;2022-11-23T09:05:46;7.50;1.00
7822;DHT22;3956;50.558;9.678;2022-11-23T09:12:09;7.30;1.00
7822;DHT22;3956;50.558;9.678;2022-11-23T09:15:10;7.30;1.00
7822;DHT22;3956;50.558;9.678;2022-11-23T09:17:43;7.40;1.00
7822;DHT22;3956;50.558;9.678;2022-11-23T09:20:13;7.50;1.00
7822;DHT22;3956;50.558;9.678;2022-11-23T09:22:49;7.40;1.00
7822;DHT22;3956;50.558;9.678;2022-11-23T09:25:19;7.40;1.00
7822;DHT22;3956;50.558;9.678;2022-11-23T09:27:48;7.30;1.00
7822;DHT22;3956;50.558;9.678;2022-11-23T09:30:17;7.40;1.00
7822;DHT22;3956;50.558;9.678;2022-11-23T09:32:54;7.40;1.00
7822;DHT22;3956;50.558;9.678;2022-11-23T09:35:27;7.50;1.00
7822;DHT22;3956;50.558;9.678;2022-11-23T09:37:58;7.40;1.00
7822;DHT22;3956;50.558;9.678;2022-11-23T09:40:29;7.60;1.00
7822;DHT22;3956;50.558;9.678;2022-11-23T09:45:42;7.50;1.00
7822;DHT22;3956;50.558;9.678;2022-11-23T09:50:48;7.50;1.00
7822;DHT22;3956;50.558;9.678;2022-11-23T09:54:04;7.70;1.00
7822;DHT22;3956;50.558;9.678;2022-11-23T09:57:31;7.50;1.00
7822;DHT22;3956;50.558;9.678;2022-11-23T10:00:17;7.60;1.00
7822;DHT22;3956;50.558;9.678;2022-11-23T10:03:37;7.70;1.00
7822;DHT22;3956;50.558;9.678;2022-11-23T10:07:10;7.50;1.00
7822;DHT22;3956;50.558;9.678;2022-11-23T10:10:03;7.70;1.00
7822;DHT22;3956;50.558;9.678;2022-11-23T10:12:50;7.40;1.00
7822;DHT22;3956;50.558;9.678;2022-11-23T10:15:26;7.60;1.00
7822;DHT22;3956;50.558;9.678;2022-11-23T10:18:22;7.70;1.00
7822;DHT22;3956;50.558;9.678;2022-11-23T10:21:10;7.50;1.00
7822;DHT22;3956;50.558;9.678;2022-11-23T10:24:15;7.70;1.00
7822;DHT22;3956;50.558;9.678;2022-11-23T10:26:49;7.70;1.00
7822;DHT22;3956;50.558;9.678;2022-11-23T10:29:26;7.60;1.00
7822;DHT22;3956;50.558;9.678;2022-11-23T10:31:58;7.60;1.00
7822;DHT22;3956;50.558;9.678;2022-11-23T10:34:44;7.80;1.00
7822;DHT22;3956;50.558;9.678;2022-11-23T10:37:18;7.90;1.00
7822;DHT22;3956;50.558;9.678;2022-11-23T10:40:00;8.10;1.00
7822;DHT22;3956;50.558;9.678;2022-11-23T10:42:45;8.20;1.00
7822;DHT22;3956;50.558;9.678;2022-11-23T10:46:29;8.20;1.00
7822;DHT22;3956;50.558;9.678;2022-11-23T10:49:16;8.30;1.00
7822;DHT22;3956;50.558;9.678;2022-11-23T10:51:52;8.60;1.00
7822;DHT22;3956;50.558;9.678;2022-11-23T10:54:29;8.50;1.00
7822;DHT22;3956;50.558;9.678;2022-11-23T10:57:21;8.50;1.00
7822;DHT22;3956;50.558;9.678;2022-11-23T11:00:40;8.50;1.00
7822;DHT22;3956;50.558;9.678;2022-11-23T11:03:37;8.40;1.00
7822;DHT22;3956;50.558;9.678;2022-11-23T11:06:09;8.20;1.00
7822;DHT22;3956;50.558;9.678;2022-11-23T11:08:51;9.10;1.00
7822;DHT22;3956;50.558;9.678;2022-11-23T11:11:34;9.30;1.00
7822;DHT22;3956;50.558;9.678;2022-11-23T11:14:57;8.30;1.00
7822;DHT22;3956;50.558;9.678;2022-11-23T11:17:58;8.60;1.00
7822;DHT22;3956;50.558;9.678;2022-11-23T11:20:35;8.60;1.00
7822;DHT22;3956;50.558;9.678;2022-11-23T11:23:22;8.50;1.00
7822;DHT22;3956;50.558;9.678;2022-11-23T11:26:27;8.40;1.00
7822;DHT22;3956;50.558;9.678;2022-11-23T11:29:33;8.50;1.00
7822;DHT22;3956;50.558;9.678;2022-11-23T11:32:09;8.60;1.00
7822;DHT22;3956;50.558;9.678;2022-11-23T11:34:44;8.30;1.00
7822;DHT22;3956;50.558;9.678;2022-11-23T11:37:48;8.50;1.00
7822;DHT22;3956;50.558;9.678;2022-11-23T11:40:27;8.50;1.00
7822;DHT22;3956;50.558;9.678;2022-11-23T11:43:51;8.50;1.00
7822;DHT22;3956;50.558;9.678;2022-11-23T11:47:03;8.70;1.00
7822;DHT22;3956;50.558;9.678;2022-11-23T11:50:00;8.50;1.00
7822;DHT22;3956;50.558;9.678;2022-11-23T11:52:39;8.40;1.00
7822;DHT22;3956;50.558;9.678;2022-11-23T11:55:25;8.60;1.00
7822;DHT22;3956;50.558;9.678;2022-11-23T11:58:21;8.60;1.00
7822;DHT22;3956;50.558;9.678;2022-11-23T12:01:20;9.00;1.00
7822;DHT22;3956;50.558;9.678;2022-11-23T12:04:26;8.90;1.00
7822;DHT22;3956;50.558;9.678;2022-11-23T12:07:34;9.00;1.00
7822;DHT22;3956;50.558;9.678;2022-11-23T12:10:53;9.00;1.00
7822;DHT22;3956;50.558;9.678;2022-11-23T12:13:35;9.00;1.00
7822;DHT22;3956;50.558;9.678;2022-11-23T12:16:13;9.00;1.00
7822;DHT22;3956;50.558;9.678;2022-11-23T12:19:12;8.80;1.00
7822;DHT22;3956;50.558;9.678;2022-11-23T12:22:32;8.80;1.00
7822;DHT22;3956;50.558;9.678;2022-11-23T12:25:26;8.80;1.00
7822;DHT22;3956;50.558;9.678;2022-11-23T12:31:52;8.80;1.00
7822;DHT22;3956;50.558;9.678;2022-11-23T12:35:00;8.90;1.00
7822;DHT22;3956;50.558;9.678;2022-11-23T12:37:48;8.90;1.00
7822;DHT22;3956;50.558;9.678;2022-11-23T12:40:43;9.00;1.00
7822;DHT22;3956;50.558;9.678;2022-11-23T12:43:31;9.00;1.00
7822;DHT22;3956;50.558;9.678;2022-11-23T12:46:29;9.00;1.00
7822;DHT22;3956;50.558;9.678;2022-11-23T12:49:12;9.00;1.00
7822;DHT22;3956;50.558;9.678;2022-11-23T12:51:54;8.90;1.00
7822;DHT22;3956;50.558;9.678;2022-11-23T12:54:52;9.10;1.00
7822;DHT22;3956;50.558;9.678;2022-11-23T12:58:05;9.10;1.00
7822;DHT22;3956;50.558;9.678;2022-11-23T13:00:43;9.20;1.00
7822;DHT22;3956;50.558;9.678;2022-11-23T13:04:02;9.20;1.00
7822;DHT22;3956;50.558;9.678;2022-11-23T13:10:14;9.10;1.00
7822;DHT22;3956;50.558;9.678;2022-11-23T13:13:04;9.10;1.00
7822;DHT22;3956;50.558;9.678;2022-11-23T13:16:10;9.10;1.00
7822;DHT22;3956;50.558;9.678;2022-11-23T13:19:15;9.10;1.00
7822;DHT22;3956;50.558;9.678;2022-11-23T13:25:24;9.00;1.00
7822;DHT22;3956;50.558;9.678;2022-11-23T13:28:01;9.00;1.00
7822;DHT22;3956;50.558;9.678;2022-11-23T13:30:41;9.00;1.00
7822;DHT22;3956;50.558;9.678;2022-11-23T13:33:38;9.10;1.00
7822;DHT22;3956;50.558;9.678;2022-11-23T13:36:46;9.10;1.00
7822;DHT22;3956;50.558;9.678;2022-11-23T13:40:02;9.10;1.00
7822;DHT22;3956;50.558;9.678;2022-11-23T13:42:34;9.10;1.00
7822;DHT22;3956;50.558;9.678;2022-11-23T13:45:28;9.00;1.00
7822;DHT22;3956;50.558;9.678;2022-11-23T13:48:16;9.00;1.00
7822;DHT22;3956;50.558;9.678;2022-11-23T13:51:09;8.90;1.00
7822;DHT22;3956;50.558;9.678;2022-11-23T13:54:00;8.90;1.00
7822;DHT22;3956;50.558;9.678;2022-11-23T13:57:13;8.90;1.00
7822;DHT22;3956;50.558;9.678;2022-11-23T13:59:44;8.80;1.00
7822;DHT22;3956;50.558;9.678;2022-11-23T14:02:26;8.80;1.00
7822;DHT22;3956;50.558;9.678;2022-11-23T14:08:45;8.70;1.00
7822;DHT22;3956;50.558;9.678;2022-11-23T14:12:19;8.70;1.00
7822;DHT22;3956;50.558;9.678;2022-11-23T14:14:55;8.60;1.00
7822;DHT22;3956;50.558;9.678;2022-11-23T14:18:07;8.60;1.00
7822;DHT22;3956;50.558;9.678;2022-11-23T14:21:11;8.50;1.00
7822;DHT22;3956;50.558;9.678;2022-11-23T14:28:01;8.60;1.00
7822;DHT22;3956;50.558;9.678;2022-11-23T14:30:45;8.50;1.00
7822;DHT22;3956;50.558;9.678;2022-11-23T14:33:28;8.50;1.00
7822;DHT22;3956;50.558;9.678;2022-11-23T14:36:11;8.50;1.00
7822;DHT22;3956;50.558;9.678;2022-11-23T14:39:15;8.50;1.00
7822;DHT22;3956;50.558;9.678;2022-11-23T14:42:08;8.40;1.00
7822;DHT22;3956;50.558;9.678;2022-11-23T14:45:15;8.40;1.00
7822;DHT22;3956;50.558;9.678;2022-11-23T14:47:46;8.30;1.00
7822;DHT22;3956;50.558;9.678;2022-11-23T14:53:38;8.20;1.00
7822;DHT22;3956;50.558;9.678;2022-11-23T14:56:49;8.10;1.00
7822;DHT22;3956;50.558;9.678;2022-11-23T14:59:22;8.00;1.00
7822;DHT22;3956;50.558;9.678;2022-11-23T15:02:05;8.00;1.00
7822;DHT22;3956;50.558;9.678;2022-11-23T15:05:06;7.90;1.00
7822;DHT22;3956;50.558;9.678;2022-11-23T15:07:49;7.90;1.00
7822;DHT22;3956;50.558;9.678;2022-11-23T15:10:43;7.80;1.00
7822;DHT22;3956;50.558;9.678;2022-11-23T15:13:23;7.80;1.00
7822;DHT22;3956;50.558;9.678;2022-11-23T15:16:02;7.80;1.00
7822;DHT22;3956;50.558;9.678;2022-11-23T15:29:48;7.50;1.00
7822;DHT22;3956;50.558;9.678;2022-11-23T15:32:42;7.40;1.00
7822;DHT22;3956;50.558;9.678;2022-11-23T15:35:32;7.30;1.00
7822;DHT22;3956;50.558;9.678;2022-11-23T15:38:02;7.40;1.00
7822;DHT22;3956;50.558;9.678;2022-11-23T15:40:39;7.40;1.00
7822;DHT22;3956;50.558;9.678;2022-11-23T15:43:29;7.30;1.00
7822;DHT22;3956;50.558;9.678;2022-11-23T16:04:35;7.00;1.00
7822;DHT22;3956;50.558;9.678;2022-11-23T16:07:19;6.90;1.00
7822;DHT22;3956;50.558;9.678;2022-11-23T16:09:49;6.90;1.00
7822;DHT22;3956;50.558;9.678;2022-11-23T16:12:25;6.80;1.00
7822;DHT22;3956;50.558;9.678;2022-11-23T16:18:49;6.70;1.00
7822;DHT22;3956;50.558;9.678;2022-11-23T16:22:16;6.60;1.00
7822;DHT22;3956;50.558;9.678;2022-11-23T16:25:04;6.60;1.00
7822;DHT22;3956;50.558;9.678;2022-11-23T16:28:02;6.50;1.00
7822;DHT22;3956;50.558;9.678;2022-11-23T16:30:36;6.50;1.00
7822;DHT22;3956;50.558;9.678;2022-11-23T16:33:13;6.50;1.00
7822;DHT22;3956;50.558;9.678;2022-11-23T16:35:41;6.40;1.00
7822;DHT22;3956;50.558;9.678;2022-11-23T16:38:13;6.40;1.00
7822;DHT22;3956;50.558;9.678;2022-11-23T16:40:43;6.40;1.00
7822;DHT22;3956;50.558;9.678;2022-11-23T16:43:13;6.40;1.00
7822;DHT22;3956;50.558;9.678;2022-11-23T16:45:44;6.40;1.00
7822;DHT22;3956;50.558;9.678;2022-11-23T16:48:41;6.40;1.00
7822;DHT22;3956;50.558;9.678;2022-11-23T16:51:12;6.40;1.00
7822;DHT22;3956;50.558;9.678;2022-11-23T16:53:45;6.30;1.00
7822;DHT22;3956;50.558;9.678;2022-11-23T16:56:35;6.30;1.00
7822;DHT22;3956;50.558;9.678;2022-11-23T17:02:40;6.10;1.00
7822;DHT22;3956;50.558;9.678;2022-11-23T17:06:06;6.10;1.00
7822;DHT22;3956;50.558;9.678;2022-11-23T17:09:47;6.00;1.00
7822;DHT22;3956;50.558;9.678;2022-11-23T17:12:59;5.90;1.00
7822;DHT22;3956;50.558;9.678;2022-11-23T17:15:42;5.80;1.00
7822;DHT22;3956;50.558;9.678;2022-11-23T17:18:31;5.70;1.00
7822;DHT22;3956;50.558;9.678;2022-11-23T17:21:04;5.60;1.00
7822;DHT22;3956;50.558;9.678;2022-11-23T17:23:41;5.50;1.00
7822;DHT22;3956;50.558;9.678;2022-11-23T17:26:29;5.30;1.00
7822;DHT22;3956;50.558;9.678;2022-11-23T17:29:04;5.20;1.00
7822;DHT22;3956;50.558;9.678;2022-11-23T17:32:10;5.20;1.00
7822;DHT22;3956;50.558;9.678;2022-11-23T17:34:59;5.20;1.00
7822;DHT22;3956;50.558;9.678;2022-11-23T17:37:31;5.10;1.00
7822;DHT22;3956;50.558;9.678;2022-11-23T17:40:19;5.10;1.00
7822;DHT22;3956;50.558;9.678;2022-11-23T17:43:17;5.10;1.00
7822;DHT22;3956;50.558;9.678;2022-11-23T17:45:51;5.00;1.00
7822;DHT22;3956;50.558;9.678;2022-11-23T17:48:19;4.90;1.00
7822;DHT22;3956;50.558;9.678;2022-11-23T17:50:49;5.00;1.00
7822;DHT22;3956;50.558;9.678;2022-11-23T17:53:28;5.00;1.00
7822;DHT22;3956;50.558;9.678;2022-11-23T18:00:18;5.00;1.00
7822;DHT22;3956;50.558;9.678;2022-11-23T18:03:05;5.00;1.00
7822;DHT22;3956;50.558;9.678;2022-11-23T18:06:49;5.00;1.00
7822;DHT22;3956;50.558;9.678;2022-11-23T18:09:20;5.00;1.00
7822;DHT22;3956;50.558;9.678;2022-11-23T18:11:52;5.10;1.00
7822;DHT22;3956;50.558;9.678;2022-11-23T18:14:29;5.10;1.00
7822;DHT22;3956;50.558;9.678;2022-11-23T18:17:06;5.10;1.00
7822;DHT22;3956;50.558;9.678;2022-11-23T18:20:09;5.00;1.00
7822;DHT22;3956;50.558;9.678;2022-11-23T18:29:50;5.20;1.00
7822;DHT22;3956;50.558;9.678;2022-11-23T18:32:23;5.10;1.00
7822;DHT22;3956;50.558;9.678;2022-11-23T18:34:52;5.10;1.00
7822;DHT22;3956;50.558;9.678;2022-11-23T18:37:23;5.10;1.00
7822;DHT22;3956;50.558;9.678;2022-11-23T18:39:51;5.10;1.00
7822;DHT22;3956;50.558;9.678;2022-11-23T18:42:26;5.10;1.00
7822;DHT22;3956;50.558;9.678;2022-11-23T18:51:53;5.20;1.00
7822;DHT22;3956;50.558;9.678;2022-11-23T18:54:22;5.30;1.00
7822;DHT22;3956;50.558;9.678;2022-11-23T18:56:52;5.40;1.00
7822;DHT22;3956;50.558;9.678;2022-11-23T18:59:21;5.50;1.00
7822;DHT22;3956;50.558;9.678;2022-11-23T19:02:09;5.40;1.00
7822;DHT22;3956;50.558;9.678;2022-11-23T19:04:38;5.50;1.00
7822;DHT22;3956;50.558;9.678;2022-11-23T19:07:08;5.70;1.00
7822;DHT22;3956;50.558;9.678;2022-11-23T19:09:36;5.70;1.00
7822;DHT22;3956;50.558;9.678;2022-11-23T19:12:06;5.50;1.00
7822;DHT22;3956;50.558;9.678;2022-11-23T19:14:35;5.50;1.00
7822;DHT22;3956;50.558;9.678;2022-11-23T19:17:03;5.50;1.00
7822;DHT22;3956;50.558;9.678;2022-11-23T19:19:33;5.50;1.00
7822;DHT22;3956;50.558;9.678;2022-11-23T19:22:06;5.60;1.00
7822;DHT22;3956;50.558;9.678;2022-11-23T19:24:38;5.60;1.00
7822;DHT22;3956;50.558;9.678;2022-11-23T19:27:08;5.60;1.00
7822;DHT22;3956;50.558;9.678;2022-11-23T19:29:37;5.60;1.00
7822;DHT22;3956;50.558;9.678;2022-11-23T19:32:05;5.70;1.00
7822;DHT22;3956;50.558;9.678;2022-11-23T19:34:33;5.70;1.00
7822;DHT22;3956;50.558;9.678;2022-11-23T19:37:02;5.70;1.00